sensor_id;sensor_type;location;lat;lon;timestamp;pressure;altitude;pressure_sealevel;temperature;humidity
76086;BME280;64791;0.000;0.000;2023-11-18T00:01:13;93122.00;;;7.29;68.87
76086;BME280;64791;0.000;0.000;2023-11-18T00:03:38;93115.06;;;7.36;68.96
76086;BME280;64791;0.000;0.000;2023-11-18T00:06:04;93101.91;;;7.34;69.07
76086;BME280;64791;0.000;0.000;2023-11-18T00:08:30;93103.91;;;7.26;69.26
76086;BME280;64791;0.000;0.000;2023-11-18T00:10:56;93108.97;;;7.22;69.18
76086;BME280;64791;0.000;0.000;2023-11-18T00:13:22;93110.25;;;7.21;68.57
76086;BME280;64791;0.000;0.000;2023-11-18T00:15:47;93100.94;;;7.24;68.72
76086;BME280;64791;0.000;0.000;2023-11-18T00:18:13;93093.78;;;7.21;68.47
76086;BME280;64791;0.000;0.000;2023-11-18T00:20:38;93107.50;;;7.21;68.51
76086;BME280;64791;0.000;0.000;2023-11-18T00:23:04;93126.13;;;7.15;68.62
76086;BME280;64791;0.000;0.000;2023-11-18T00:25:30;93121.22;;;7.14;68.66
76086;BME280;64791;0.000;0.000;2023-11-18T00:27:55;93123.03;;;7.11;68.69
76086;BME280;64791;0.000;0.000;2023-11-18T00:30:21;93118.59;;;7.01;68.52
76086;BME280;64791;0.000;0.000;2023-11-18T00:32:47;93104.91;;;7.01;68.87
76086;BME280;64791;0.000;0.000;2023-11-18T00:35:13;93104.34;;;7.02;68.30
76086;BME280;64791;0.000;0.000;2023-11-18T00:37:39;93104.53;;;7.04;68.50
76086;BME280;64791;0.000;0.000;2023-11-18T00:40:06;93097.56;;;7.03;68.12
76086;BME280;64791;0.000;0.000;2023-11-18T00:42:32;93095.75;;;7.06;67.90
76086;BME280;64791;0.000;0.000;2023-11-18T00:44:58;93090.09;;;7.04;67.60
76086;BME280;64791;0.000;0.000;2023-11-18T00:47:24;93093.03;;;7.06;67.37
76086;BME280;64791;0.000;0.000;2023-11-18T00:49:49;93083.69;;;7.01;67.93
76086;BME280;64791;0.000;0.000;2023-11-18T00:52:17;93094.28;;;6.97;67.79
76086;BME280;64791;0.000;0.000;2023-11-18T00:54:44;93092.09;;;6.96;67.50
76086;BME280;64791;0.000;0.000;2023-11-18T00:57:11;93096.50;;;6.99;67.70
76086;BME280;64791;0.000;0.000;2023-11-18T00:59:36;93104.88;;;6.93;67.45
76086;BME280;64791;0.000;0.000;2023-11-18T01:02:02;93098.13;;;6.94;67.61
76086;BME280;64791;0.000;0.000;2023-11-18T01:04:29;93104.88;;;6.93;67.29
76086;BME280;64791;0.000;0.000;2023-11-18T01:06:55;93107.78;;;6.95;67.29
76086;BME280;64791;0.000;0.000;2023-11-18T01:09:23;93101.75;;;6.97;67.21
76086;BME280;64791;0.000;0.000;2023-11-18T01:11:49;93100.06;;;6.79;67.91
76086;BME280;64791;0.000;0.000;2023-11-18T01:14:15;93113.38;;;6.74;67.63
76086;BME280;64791;0.000;0.000;2023-11-18T01:16:41;93113.03;;;6.78;67.53
76086;BME280;64791;0.000;0.000;2023-11-18T01:19:07;93107.41;;;6.84;67.55
76086;BME280;64791;0.000;0.000;2023-11-18T01:21:34;93112.72;;;6.89;67.13
76086;BME280;64791;0.000;0.000;2023-11-18T01:24:01;93129.16;;;6.89;66.73
76086;BME280;64791;0.000;0.000;2023-11-18T01:26:27;93127.28;;;6.84;66.99
76086;BME280;64791;0.000;0.000;2023-11-18T01:28:53;93120.91;;;6.82;66.87
76086;BME280;64791;0.000;0.000;2023-11-18T01:31:20;93112.84;;;6.76;67.31
76086;BME280;64791;0.000;0.000;2023-11-18T01:33:47;93113.34;;;6.67;67.02
76086;BME280;64791;0.000;0.000;2023-11-18T01:36:15;93114.81;;;6.68;67.29
76086;BME280;64791;0.000;0.000;2023-11-18T01:38:41;93118.59;;;6.57;67.52
76086;BME280;64791;0.000;0.000;2023-11-18T01:41:07;93133.75;;;6.58;67.94
76086;BME280;64791;0.000;0.000;2023-11-18T01:43:32;93124.66;;;6.63;67.13
76086;BME280;64791;0.000;0.000;2023-11-18T01:45:59;93119.34;;;6.58;67.28
76086;BME280;64791;0.000;0.000;2023-11-18T01:48:27;93112.03;;;6.60;66.94
76086;BME280;64791;0.000;0.000;2023-11-18T01:50:53;93114.59;;;6.58;67.25
76086;BME280;64791;0.000;0.000;2023-11-18T01:53:21;93118.56;;;6.50;67.31
76086;BME280;64791;0.000;0.000;2023-11-18T01:55:47;93118.41;;;6.55;67.38
76086;BME280;64791;0.000;0.000;2023-11-18T01:58:14;93122.22;;;6.52;67.54
76086;BME280;64791;0.000;0.000;2023-11-18T02:00:45;93130.25;;;6.50;67.14
76086;BME280;64791;0.000;0.000;2023-11-18T02:03:14;93123.31;;;6.49;67.36
76086;BME280;64791;0.000;0.000;2023-11-18T02:05:40;93128.81;;;6.49;66.99
76086;BME280;64791;0.000;0.000;2023-11-18T02:08:07;93129.00;;;6.51;66.84
76086;BME280;64791;0.000;0.000;2023-11-18T02:10:34;93126.59;;;6.48;66.76
76086;BME280;64791;0.000;0.000;2023-11-18T02:13:13;93115.81;;;6.86;67.19
76086;BME280;64791;0.000;0.000;2023-11-18T02:15:43;93123.50;;;7.68;65.18
76086;BME280;64791;0.000;0.000;2023-11-18T02:18:10;93116.53;;;8.43;63.84
76086;BME280;64791;0.000;0.000;2023-11-18T02:20:37;93104.16;;;8.74;62.06
76086;BME280;64791;0.000;0.000;2023-11-18T02:23:03;93102.94;;;8.60;61.92
76086;BME280;64791;0.000;0.000;2023-11-18T02:25:29;93114.53;;;8.28;62.32
76086;BME280;64791;0.000;0.000;2023-11-18T02:27:58;93120.97;;;8.00;63.42
76086;BME280;64791;0.000;0.000;2023-11-18T02:30:23;93125.72;;;7.77;63.55
76086;BME280;64791;0.000;0.000;2023-11-18T02:32:58;93131.72;;;7.53;64.10
76086;BME280;64791;0.000;0.000;2023-11-18T02:35:32;93144.50;;;7.35;64.71
76086;BME280;64791;0.000;0.000;2023-11-18T02:38:02;93118.47;;;7.21;64.52
76086;BME280;64791;0.000;0.000;2023-11-18T02:40:35;93119.38;;;7.16;65.05
76086;BME280;64791;0.000;0.000;2023-11-18T02:43:01;93127.59;;;7.09;64.46
76086;BME280;64791;0.000;0.000;2023-11-18T02:45:31;93129.56;;;7.01;65.00
76086;BME280;64791;0.000;0.000;2023-11-18T02:47:58;93131.34;;;6.91;65.02
76086;BME280;64791;0.000;0.000;2023-11-18T02:50:24;93127.66;;;6.81;65.63
76086;BME280;64791;0.000;0.000;2023-11-18T02:52:50;93126.72;;;6.78;65.05
76086;BME280;64791;0.000;0.000;2023-11-18T02:55:15;93130.16;;;6.71;65.13
76086;BME280;64791;0.000;0.000;2023-11-18T02:57:41;93140.44;;;6.78;65.56
76086;BME280;64791;0.000;0.000;2023-11-18T03:00:07;93145.44;;;7.45;64.32
76086;BME280;64791;0.000;0.000;2023-11-18T03:02:48;93134.31;;;8.26;62.85
76086;BME280;64791;0.000;0.000;2023-11-18T03:05:17;93128.47;;;8.92;59.94
76086;BME280;64791;0.000;0.000;2023-11-18T03:07:46;93131.78;;;8.91;59.22
76086;BME280;64791;0.000;0.000;2023-11-18T03:10:18;93137.94;;;8.52;60.49
76086;BME280;64791;0.000;0.000;2023-11-18T03:12:47;93146.97;;;8.14;61.03
76086;BME280;64791;0.000;0.000;2023-11-18T03:15:13;93158.13;;;7.86;61.82
76086;BME280;64791;0.000;0.000;2023-11-18T03:17:38;93163.56;;;7.64;62.24
76086;BME280;64791;0.000;0.000;2023-11-18T03:20:06;93175.78;;;7.40;62.54
76086;BME280;64791;0.000;0.000;2023-11-18T03:22:33;93169.50;;;7.24;62.51
76086;BME280;64791;0.000;0.000;2023-11-18T03:24:59;93166.88;;;7.11;62.76
76086;BME280;64791;0.000;0.000;2023-11-18T03:27:25;93160.84;;;7.05;63.08
76086;BME280;64791;0.000;0.000;2023-11-18T03:29:52;93169.22;;;7.00;63.01
76086;BME280;64791;0.000;0.000;2023-11-18T03:32:18;93170.50;;;7.06;63.93
76086;BME280;64791;0.000;0.000;2023-11-18T03:34:43;93160.28;;;7.58;61.98
76086;BME280;64791;0.000;0.000;2023-11-18T03:37:10;93165.06;;;8.33;61.23
76086;BME280;64791;0.000;0.000;2023-11-18T03:39:35;93159.44;;;9.00;58.91
76086;BME280;64791;0.000;0.000;2023-11-18T03:42:01;93162.09;;;9.31;57.13
76086;BME280;64791;0.000;0.000;2023-11-18T03:44:27;93158.34;;;8.96;57.13
76086;BME280;64791;0.000;0.000;2023-11-18T03:46:52;93181.34;;;8.53;58.43
76086;BME280;64791;0.000;0.000;2023-11-18T03:49:18;93183.56;;;8.17;59.56
76086;BME280;64791;0.000;0.000;2023-11-18T03:51:45;93174.03;;;7.88;59.75
76086;BME280;64791;0.000;0.000;2023-11-18T03:54:11;93162.47;;;7.67;60.78
76086;BME280;64791;0.000;0.000;2023-11-18T03:56:38;93154.19;;;7.44;61.00
76086;BME280;64791;0.000;0.000;2023-11-18T03:59:04;93162.53;;;7.23;61.34
76086;BME280;64791;0.000;0.000;2023-11-18T04:01:30;93165.06;;;7.14;62.01
76086;BME280;64791;0.000;0.000;2023-11-18T04:03:55;93163.59;;;7.20;61.93
76086;BME280;64791;0.000;0.000;2023-11-18T04:06:21;93159.56;;;7.87;60.78
76086;BME280;64791;0.000;0.000;2023-11-18T04:08:48;93154.41;;;8.59;58.72
76086;BME280;64791;0.000;0.000;2023-11-18T04:11:15;93164.47;;;9.27;56.67
76086;BME280;64791;0.000;0.000;2023-11-18T04:13:41;93165.66;;;9.48;56.12
76086;BME280;64791;0.000;0.000;2023-11-18T04:16:13;93181.41;;;9.16;56.12
76086;BME280;64791;0.000;0.000;2023-11-18T04:18:40;93168.16;;;8.59;57.34
76086;BME280;64791;0.000;0.000;2023-11-18T04:21:09;93191.44;;;8.13;58.45
76086;BME280;64791;0.000;0.000;2023-11-18T04:23:39;93191.59;;;7.85;59.16
76086;BME280;64791;0.000;0.000;2023-11-18T04:26:06;93199.59;;;7.60;59.77
76086;BME280;64791;0.000;0.000;2023-11-18T04:28:32;93207.78;;;7.45;60.45
76086;BME280;64791;0.000;0.000;2023-11-18T04:30:59;93203.19;;;7.32;60.18
76086;BME280;64791;0.000;0.000;2023-11-18T04:33:25;93201.28;;;7.20;60.83
76086;BME280;64791;0.000;0.000;2023-11-18T04:35:51;93217.44;;;7.31;60.88
76086;BME280;64791;0.000;0.000;2023-11-18T04:38:17;93204.59;;;7.92;59.71
76086;BME280;64791;0.000;0.000;2023-11-18T04:40:43;93201.50;;;8.63;58.55
76086;BME280;64791;0.000;0.000;2023-11-18T04:43:11;93198.41;;;9.29;57.61
76086;BME280;64791;0.000;0.000;2023-11-18T04:45:37;93194.13;;;9.43;55.79
76086;BME280;64791;0.000;0.000;2023-11-18T04:48:03;93193.34;;;9.11;55.77
76086;BME280;64791;0.000;0.000;2023-11-18T04:50:29;93193.25;;;8.63;56.29
76086;BME280;64791;0.000;0.000;2023-11-18T04:52:55;93200.97;;;8.19;57.32
76086;BME280;64791;0.000;0.000;2023-11-18T04:55:21;93185.56;;;7.86;58.39
76086;BME280;64791;0.000;0.000;2023-11-18T04:57:47;93193.78;;;7.71;59.15
76086;BME280;64791;0.000;0.000;2023-11-18T05:00:13;93185.34;;;7.54;59.62
76086;BME280;64791;0.000;0.000;2023-11-18T05:02:42;93200.09;;;7.36;59.68
76086;BME280;64791;0.000;0.000;2023-11-18T05:05:08;93193.28;;;7.29;59.68
76086;BME280;64791;0.000;0.000;2023-11-18T05:07:34;93185.53;;;7.79;58.82
76086;BME280;64791;0.000;0.000;2023-11-18T05:10:03;93170.19;;;8.51;57.76
76086;BME280;64791;0.000;0.000;2023-11-18T05:12:28;93164.00;;;9.13;55.43
76086;BME280;64791;0.000;0.000;2023-11-18T05:14:55;93158.72;;;9.72;54.09
76086;BME280;64791;0.000;0.000;2023-11-18T05:17:22;93163.47;;;9.79;52.95
76086;BME280;64791;0.000;0.000;2023-11-18T05:19:48;93171.63;;;9.30;52.80
76086;BME280;64791;0.000;0.000;2023-11-18T05:22:13;93175.63;;;8.74;54.34
76086;BME280;64791;0.000;0.000;2023-11-18T05:24:39;93177.53;;;8.26;56.40
76086;BME280;64791;0.000;0.000;2023-11-18T05:27:05;93181.00;;;7.96;56.93
76086;BME280;64791;0.000;0.000;2023-11-18T05:29:31;93182.63;;;7.69;57.29
76086;BME280;64791;0.000;0.000;2023-11-18T05:31:57;93188.22;;;7.48;58.12
76086;BME280;64791;0.000;0.000;2023-11-18T05:34:23;93193.38;;;7.60;58.21
76086;BME280;64791;0.000;0.000;2023-11-18T05:36:50;93192.16;;;8.28;57.03
76086;BME280;64791;0.000;0.000;2023-11-18T05:39:20;93196.28;;;8.97;56.12
76086;BME280;64791;0.000;0.000;2023-11-18T05:41:47;93191.50;;;9.53;54.38
76086;BME280;64791;0.000;0.000;2023-11-18T05:44:15;93182.69;;;9.54;52.80
76086;BME280;64791;0.000;0.000;2023-11-18T05:46:45;93188.38;;;9.09;54.06
76086;BME280;64791;0.000;0.000;2023-11-18T05:49:12;93201.31;;;8.61;54.92
76086;BME280;64791;0.000;0.000;2023-11-18T05:51:39;93188.16;;;8.22;56.13
76086;BME280;64791;0.000;0.000;2023-11-18T05:54:06;93193.44;;;7.90;56.85
76086;BME280;64791;0.000;0.000;2023-11-18T05:56:32;93186.63;;;7.68;57.26
76086;BME280;64791;0.000;0.000;2023-11-18T05:58:57;93188.22;;;7.48;57.48
76086;BME280;64791;0.000;0.000;2023-11-18T06:01:23;93201.00;;;7.31;58.08
76086;BME280;64791;0.000;0.000;2023-11-18T06:03:49;93198.16;;;7.16;58.16
76086;BME280;64791;0.000;0.000;2023-11-18T06:06:15;93202.31;;;7.52;57.52
76086;BME280;64791;0.000;0.000;2023-11-18T06:08:42;93207.19;;;8.35;55.60
76086;BME280;64791;0.000;0.000;2023-11-18T06:11:09;93217.34;;;9.10;54.75
76086;BME280;64791;0.000;0.000;2023-11-18T06:13:45;93205.75;;;9.66;53.21
76086;BME280;64791;0.000;0.000;2023-11-18T06:18:45;93222.84;;;9.18;53.01
76086;BME280;64791;0.000;0.000;2023-11-18T06:21:11;93221.47;;;8.64;53.97
76086;BME280;64791;0.000;0.000;2023-11-18T06:23:36;93229.72;;;8.18;55.52
76086;BME280;64791;0.000;0.000;2023-11-18T06:26:02;93241.22;;;7.87;56.38
76086;BME280;64791;0.000;0.000;2023-11-18T06:28:28;93254.13;;;7.56;57.24
76086;BME280;64791;0.000;0.000;2023-11-18T06:30:54;93243.63;;;7.39;57.84
76086;BME280;64791;0.000;0.000;2023-11-18T06:33:20;93240.38;;;7.20;57.91
76086;BME280;64791;0.000;0.000;2023-11-18T06:35:48;93249.66;;;7.10;58.09
76086;BME280;64791;0.000;0.000;2023-11-18T06:38:15;93243.41;;;7.02;58.13
76086;BME280;64791;0.000;0.000;2023-11-18T06:40:44;93251.63;;;6.94;58.38
76086;BME280;64791;0.000;0.000;2023-11-18T06:43:11;93247.00;;;6.89;58.56
76086;BME280;64791;0.000;0.000;2023-11-18T06:45:41;93252.84;;;6.86;59.00
76086;BME280;64791;0.000;0.000;2023-11-18T06:48:08;93249.50;;;7.43;58.49
76086;BME280;64791;0.000;0.000;2023-11-18T06:50:34;93251.16;;;8.27;57.38
76086;BME280;64791;0.000;0.000;2023-11-18T06:53:01;93252.38;;;8.94;55.65
76086;BME280;64791;0.000;0.000;2023-11-18T06:55:26;93245.22;;;9.14;53.72
76086;BME280;64791;0.000;0.000;2023-11-18T06:57:52;93247.25;;;8.91;53.75
76086;BME280;64791;0.000;0.000;2023-11-18T07:00:20;93250.59;;;8.44;54.47
76086;BME280;64791;0.000;0.000;2023-11-18T07:02:47;93262.47;;;8.09;55.29
76086;BME280;64791;0.000;0.000;2023-11-18T07:05:13;93263.50;;;7.83;56.37
76086;BME280;64791;0.000;0.000;2023-11-18T07:07:40;93251.56;;;7.66;56.87
76086;BME280;64791;0.000;0.000;2023-11-18T07:10:08;93266.91;;;7.54;57.44
76086;BME280;64791;0.000;0.000;2023-11-18T07:12:38;93242.69;;;7.37;57.20
76086;BME280;64791;0.000;0.000;2023-11-18T07:15:04;93249.75;;;7.25;57.36
76086;BME280;64791;0.000;0.000;2023-11-18T07:17:30;93252.59;;;7.12;58.05
76086;BME280;64791;0.000;0.000;2023-11-18T07:19:56;93250.91;;;7.01;58.56
76086;BME280;64791;0.000;0.000;2023-11-18T07:22:25;93252.19;;;7.00;58.32
76086;BME280;64791;0.000;0.000;2023-11-18T07:24:52;93254.69;;;6.91;57.67
76086;BME280;64791;0.000;0.000;2023-11-18T07:27:18;93269.28;;;6.86;58.38
76086;BME280;64791;0.000;0.000;2023-11-18T07:29:43;93266.47;;;6.78;58.30
76086;BME280;64791;0.000;0.000;2023-11-18T07:32:10;93271.38;;;6.72;58.19
76086;BME280;64791;0.000;0.000;2023-11-18T07:34:36;93275.91;;;6.69;58.15
76086;BME280;64791;0.000;0.000;2023-11-18T07:37:03;93273.50;;;7.22;58.52
76086;BME280;64791;0.000;0.000;2023-11-18T07:39:28;93267.97;;;8.09;56.78
76086;BME280;64791;0.000;0.000;2023-11-18T07:42:12;93264.50;;;8.84;54.48
76086;BME280;64791;0.000;0.000;2023-11-18T07:44:39;93254.38;;;9.09;53.65
76086;BME280;64791;0.000;0.000;2023-11-18T07:47:05;93250.94;;;8.93;53.04
76086;BME280;64791;0.000;0.000;2023-11-18T07:49:31;93260.47;;;8.62;53.73
76086;BME280;64791;0.000;0.000;2023-11-18T07:51:57;93248.41;;;8.27;54.58
76086;BME280;64791;0.000;0.000;2023-11-18T07:54:22;93260.47;;;8.02;55.99
76086;BME280;64791;0.000;0.000;2023-11-18T07:56:49;93267.00;;;7.84;56.20
76086;BME280;64791;0.000;0.000;2023-11-18T07:59:16;93259.59;;;7.64;56.38
76086;BME280;64791;0.000;0.000;2023-11-18T08:01:43;93267.59;;;7.46;56.99
76086;BME280;64791;0.000;0.000;2023-11-18T08:04:12;93260.22;;;7.34;57.00
76086;BME280;64791;0.000;0.000;2023-11-18T08:06:39;93257.78;;;7.23;56.92
76086;BME280;64791;0.000;0.000;2023-11-18T08:09:05;93253.38;;;7.20;56.97
76086;BME280;64791;0.000;0.000;2023-11-18T08:11:36;93260.00;;;7.24;57.17
76086;BME280;64791;0.000;0.000;2023-11-18T08:14:02;93266.72;;;7.16;57.43
76086;BME280;64791;0.000;0.000;2023-11-18T08:16:28;93265.03;;;7.05;57.80
76086;BME280;64791;0.000;0.000;2023-11-18T08:18:55;93258.22;;;6.99;57.44
76086;BME280;64791;0.000;0.000;2023-11-18T08:21:21;93268.38;;;6.91;58.47
76086;BME280;64791;0.000;0.000;2023-11-18T08:23:47;93265.59;;;6.83;58.08
76086;BME280;64791;0.000;0.000;2023-11-18T08:26:13;93261.53;;;6.77;58.49
76086;BME280;64791;0.000;0.000;2023-11-18T08:28:39;93254.59;;;6.75;58.46
76086;BME280;64791;0.000;0.000;2023-11-18T08:31:06;93254.00;;;6.69;58.79
76086;BME280;64791;0.000;0.000;2023-11-18T08:33:32;93266.75;;;6.67;58.94
76086;BME280;64791;0.000;0.000;2023-11-18T08:35:59;93277.50;;;6.57;58.97
76086;BME280;64791;0.000;0.000;2023-11-18T08:38:27;93286.03;;;6.54;58.33
76086;BME280;64791;0.000;0.000;2023-11-18T08:40:53;93290.59;;;6.51;58.78
76086;BME280;64791;0.000;0.000;2023-11-18T08:43:20;93300.94;;;6.45;58.62
76086;BME280;64791;0.000;0.000;2023-11-18T08:45:46;93313.72;;;6.71;58.83
76086;BME280;64791;0.000;0.000;2023-11-18T08:48:13;93298.50;;;7.39;57.66
76086;BME280;64791;0.000;0.000;2023-11-18T08:50:39;93295.81;;;8.20;55.22
76086;BME280;64791;0.000;0.000;2023-11-18T08:53:05;93295.31;;;8.82;54.06
76086;BME280;64791;0.000;0.000;2023-11-18T08:55:31;93287.22;;;8.99;52.78
76086;BME280;64791;0.000;0.000;2023-11-18T08:58:00;93296.41;;;8.72;53.40
76086;BME280;64791;0.000;0.000;2023-11-18T09:00:30;93289.78;;;8.37;54.12
76086;BME280;64791;0.000;0.000;2023-11-18T09:03:16;93297.25;;;8.06;55.06
76086;BME280;64791;0.000;0.000;2023-11-18T09:06:00;93300.13;;;7.78;55.75
76086;BME280;64791;0.000;0.000;2023-11-18T09:08:34;93290.31;;;7.55;56.07
76086;BME280;64791;0.000;0.000;2023-11-18T09:11:04;93293.19;;;7.41;56.35
76086;BME280;64791;0.000;0.000;2023-11-18T09:13:30;93298.06;;;7.28;56.65
76086;BME280;64791;0.000;0.000;2023-11-18T09:15:57;93295.59;;;7.17;56.43
76086;BME280;64791;0.000;0.000;2023-11-18T09:18:23;93299.38;;;7.06;56.80
76086;BME280;64791;0.000;0.000;2023-11-18T09:20:50;93301.13;;;6.96;57.04
76086;BME280;64791;0.000;0.000;2023-11-18T09:23:18;93307.69;;;6.93;57.59
76086;BME280;64791;0.000;0.000;2023-11-18T09:25:45;93301.81;;;6.89;57.49
76086;BME280;64791;0.000;0.000;2023-11-18T09:28:12;93287.72;;;6.85;57.79
76086;BME280;64791;0.000;0.000;2023-11-18T09:30:39;93288.22;;;6.76;57.61
76086;BME280;64791;0.000;0.000;2023-11-18T09:33:18;93282.28;;;6.64;57.62
76086;BME280;64791;0.000;0.000;2023-11-18T09:35:53;93264.53;;;6.58;57.92
76086;BME280;64791;0.000;0.000;2023-11-18T09:38:27;93269.06;;;6.55;58.16
76086;BME280;64791;0.000;0.000;2023-11-18T09:40:54;93269.41;;;6.52;58.28
76086;BME280;64791;0.000;0.000;2023-11-18T09:43:20;93267.34;;;6.45;58.70
76086;BME280;64791;0.000;0.000;2023-11-18T09:45:56;93279.75;;;6.46;58.31
76086;BME280;64791;0.000;0.000;2023-11-18T09:48:28;93268.13;;;7.09;57.81
76086;BME280;64791;0.000;0.000;2023-11-18T09:50:55;93272.88;;;7.88;55.96
76086;BME280;64791;0.000;0.000;2023-11-18T09:53:22;93266.34;;;8.59;54.33
76086;BME280;64791;0.000;0.000;2023-11-18T09:56:03;93261.41;;;8.87;53.23
76086;BME280;64791;0.000;0.000;2023-11-18T09:58:43;93262.13;;;8.65;53.37
76086;BME280;64791;0.000;0.000;2023-11-18T10:01:15;93264.88;;;8.35;53.80
76086;BME280;64791;0.000;0.000;2023-11-18T10:03:44;93258.78;;;8.06;54.14
76086;BME280;64791;0.000;0.000;2023-11-18T10:06:12;93259.69;;;7.86;54.25
76086;BME280;64791;0.000;0.000;2023-11-18T10:08:40;93278.28;;;7.65;55.04
76086;BME280;64791;0.000;0.000;2023-11-18T10:11:06;93283.53;;;7.48;55.97
76086;BME280;64791;0.000;0.000;2023-11-18T10:13:35;93298.31;;;7.37;56.46
76086;BME280;64791;0.000;0.000;2023-11-18T10:16:08;93294.72;;;7.22;56.30
76086;BME280;64791;0.000;0.000;2023-11-18T10:18:34;93284.53;;;7.02;57.15
76086;BME280;64791;0.000;0.000;2023-11-18T10:21:01;93283.09;;;7.01;57.07
76086;BME280;64791;0.000;0.000;2023-11-18T10:23:29;93283.19;;;6.88;56.44
76086;BME280;64791;0.000;0.000;2023-11-18T10:25:59;93281.31;;;6.83;56.75
76086;BME280;64791;0.000;0.000;2023-11-18T10:28:27;93285.63;;;6.70;57.44
76086;BME280;64791;0.000;0.000;2023-11-18T10:30:53;93272.50;;;6.77;57.16
76086;BME280;64791;0.000;0.000;2023-11-18T10:33:19;93274.66;;;6.70;57.76
76086;BME280;64791;0.000;0.000;2023-11-18T10:35:51;93286.28;;;6.63;57.58
76086;BME280;64791;0.000;0.000;2023-11-18T10:38:18;93267.13;;;6.63;57.27
76086;BME280;64791;0.000;0.000;2023-11-18T10:40:43;93268.53;;;6.57;57.56
76086;BME280;64791;0.000;0.000;2023-11-18T10:43:09;93267.47;;;6.60;57.44
76086;BME280;64791;0.000;0.000;2023-11-18T10:45:36;93262.13;;;6.54;57.57
76086;BME280;64791;0.000;0.000;2023-11-18T10:48:07;93270.28;;;6.47;57.83
76086;BME280;64791;0.000;0.000;2023-11-18T10:50:33;93249.72;;;6.82;57.10
76086;BME280;64791;0.000;0.000;2023-11-18T10:53:02;93254.66;;;7.55;55.94
76086;BME280;64791;0.000;0.000;2023-11-18T10:55:38;93242.91;;;8.35;54.50
76086;BME280;64791;0.000;0.000;2023-11-18T10:58:06;93237.22;;;8.78;52.85
76086;BME280;64791;0.000;0.000;2023-11-18T11:00:48;93241.06;;;8.68;52.72
76086;BME280;64791;0.000;0.000;2023-11-18T11:03:15;93245.84;;;8.30;53.25
76086;BME280;64791;0.000;0.000;2023-11-18T11:05:40;93232.63;;;8.05;53.59
76086;BME280;64791;0.000;0.000;2023-11-18T11:08:08;93238.44;;;7.79;54.10
76086;BME280;64791;0.000;0.000;2023-11-18T11:10:34;93236.72;;;7.61;54.44
76086;BME280;64791;0.000;0.000;2023-11-18T11:13:01;93239.63;;;7.48;54.63
76086;BME280;64791;0.000;0.000;2023-11-18T11:15:30;93225.88;;;7.33;55.44
76086;BME280;64791;0.000;0.000;2023-11-18T11:20:34;93222.66;;;7.14;56.04
76086;BME280;64791;0.000;0.000;2023-11-18T11:28:22;93223.50;;;7.01;56.34
76086;BME280;64791;0.000;0.000;2023-11-18T11:31:03;93214.75;;;7.03;56.83
76086;BME280;64791;0.000;0.000;2023-11-18T11:33:39;93228.09;;;7.06;55.82
76086;BME280;64791;0.000;0.000;2023-11-18T11:36:11;93222.44;;;7.12;56.02
76086;BME280;64791;0.000;0.000;2023-11-18T11:38:37;93225.41;;;7.14;56.03
76086;BME280;64791;0.000;0.000;2023-11-18T11:41:06;93236.56;;;7.16;55.82
76086;BME280;64791;0.000;0.000;2023-11-18T11:43:34;93239.81;;;7.14;55.82
76086;BME280;64791;0.000;0.000;2023-11-18T11:46:00;93244.59;;;7.14;55.53
76086;BME280;64791;0.000;0.000;2023-11-18T11:48:28;93241.09;;;7.13;55.71
76086;BME280;64791;0.000;0.000;2023-11-18T11:53:53;93246.41;;;7.11;55.79
76086;BME280;64791;0.000;0.000;2023-11-18T11:56:37;93248.41;;;7.11;56.07
76086;BME280;64791;0.000;0.000;2023-11-18T11:59:03;93257.00;;;7.07;56.28
76086;BME280;64791;0.000;0.000;2023-11-18T12:01:35;93247.28;;;7.06;56.13
76086;BME280;64791;0.000;0.000;2023-11-18T12:04:09;93233.75;;;7.01;56.24
76086;BME280;64791;0.000;0.000;2023-11-18T12:06:46;93237.00;;;6.99;55.87
76086;BME280;64791;0.000;0.000;2023-11-18T12:09:13;93232.81;;;6.98;55.32
76086;BME280;64791;0.000;0.000;2023-11-18T12:11:45;93254.75;;;6.98;56.42
76086;BME280;64791;0.000;0.000;2023-11-18T12:14:14;93256.25;;;7.07;56.00
76086;BME280;64791;0.000;0.000;2023-11-18T12:19:34;93262.03;;;6.96;57.02
76086;BME280;64791;0.000;0.000;2023-11-18T12:22:23;93263.94;;;6.80;56.37
76086;BME280;64791;0.000;0.000;2023-11-18T12:27:40;93265.91;;;6.72;56.41
76086;BME280;64791;0.000;0.000;2023-11-18T12:30:04;93264.56;;;6.65;56.45
76086;BME280;64791;0.000;0.000;2023-11-18T12:35:19;93257.41;;;6.62;56.59
76086;BME280;64791;0.000;0.000;2023-11-18T12:40:54;93265.97;;;6.59;56.85
76086;BME280;64791;0.000;0.000;2023-11-18T12:48:31;93270.81;;;6.45;57.04
76086;BME280;64791;0.000;0.000;2023-11-18T12:50:58;93265.28;;;6.38;56.89
76086;BME280;64791;0.000;0.000;2023-11-18T12:53:24;93257.22;;;6.60;56.43
76086;BME280;64791;0.000;0.000;2023-11-18T12:55:50;93256.03;;;7.33;55.60
76086;BME280;64791;0.000;0.000;2023-11-18T12:58:18;93259.53;;;8.07;53.92
76086;BME280;64791;0.000;0.000;2023-11-18T13:00:44;93271.09;;;8.73;52.05
76086;BME280;64791;0.000;0.000;2023-11-18T13:03:11;93261.22;;;8.78;51.58
76086;BME280;64791;0.000;0.000;2023-11-18T13:05:41;93264.53;;;8.46;51.68
76086;BME280;64791;0.000;0.000;2023-11-18T13:08:07;93257.00;;;8.16;52.52
76086;BME280;64791;0.000;0.000;2023-11-18T13:10:32;93264.44;;;7.86;53.15
76086;BME280;64791;0.000;0.000;2023-11-18T13:12:58;93273.50;;;7.58;53.32
76086;BME280;64791;0.000;0.000;2023-11-18T13:15:25;93282.34;;;7.28;54.03
76086;BME280;64791;0.000;0.000;2023-11-18T13:17:58;93269.03;;;7.12;54.08
76086;BME280;64791;0.000;0.000;2023-11-18T13:20:24;93288.75;;;7.03;55.14
76086;BME280;64791;0.000;0.000;2023-11-18T13:22:51;93276.22;;;6.87;54.95
76086;BME280;64791;0.000;0.000;2023-11-18T13:25:22;93287.00;;;6.85;55.06
76086;BME280;64791;0.000;0.000;2023-11-18T13:27:48;93299.94;;;6.84;55.33
76086;BME280;64791;0.000;0.000;2023-11-18T13:30:15;93301.56;;;6.80;56.01
76086;BME280;64791;0.000;0.000;2023-11-18T13:32:42;93303.50;;;6.71;56.07
76086;BME280;64791;0.000;0.000;2023-11-18T13:35:09;93307.13;;;6.95;55.74
76086;BME280;64791;0.000;0.000;2023-11-18T13:37:36;93317.59;;;7.60;54.96
76086;BME280;64791;0.000;0.000;2023-11-18T13:40:02;93332.47;;;8.31;52.70
76086;BME280;64791;0.000;0.000;2023-11-18T13:42:31;93322.97;;;8.99;51.81
76086;BME280;64791;0.000;0.000;2023-11-18T13:44:59;93325.38;;;9.11;50.14
76086;BME280;64791;0.000;0.000;2023-11-18T13:47:28;93327.00;;;8.76;50.67
76086;BME280;64791;0.000;0.000;2023-11-18T13:49:54;93342.19;;;8.32;51.91
76086;BME280;64791;0.000;0.000;2023-11-18T13:52:20;93342.06;;;7.94;53.02
76086;BME280;64791;0.000;0.000;2023-11-18T13:54:46;93337.75;;;7.70;53.26